Time;durP1;ratioP1;P1;durP2;ratioP2;P2;SDS_P1;SDS_P2;PMS_P1;PMS_P2;Temp;Humidity;BMP_temperature;BMP_pressure;BME280_temperature;BME280_humidity;BME280_pressure;Samples;Min_cycle;Max_cycle;Signal;HPM_P1;HPM_P2
2023/01/21 00:01:04;;;;;;;39.10;16.00;;;;;;;-0.62;100.00;101130.14;216261;1299;139639;-90
2023/01/21 00:07:04;;;;;;;;;;;;;;;;;;;;;
2023/01/21 00:12:52;;;;;;;39.30;15.40;;;;;;;-0.67;100.00;101123.92;216192;1299;139101;-88
2023/01/21 00:19:10;;;;;;;38.60;16.50;;;;;;;-0.71;100.00;101115.90;216738;1299;139369;-89
2023/01/21 00:24:39;;;;;;;37.10;15.30;;;;;;;-0.69;100.00;101121.46;216416;1299;139591;-87
2023/01/21 00:30:38;;;;;;;;;;;;;;;;;;;;;
2023/01/21 00:36:40;;;;;;;37.00;15.00;;;;;;;-0.71;100.00;101121.80;216702;1299;139742;-88
2023/01/21 00:42:30;;;;;;;;;;;;;;;;;;;;;
2023/01/21 00:48:32;;;;;;;34.00;15.10;;;;;;;-0.76;100.00;101139.14;216774;1299;139142;-89
2023/01/21 00:54:34;;;;;;;37.90;15.20;;;;;;;-0.79;100.00;101151.55;216440;1299;139222;-86
2023/01/21 01:00:11;;;;;;;;;;;;;;;;;;;;;
2023/01/21 01:06:05;;;;;;;33.30;15.70;;;;;;;-0.80;100.00;101171.24;216755;1299;139293;-89
2023/01/21 01:11:57;;;;;;;39.90;15.50;;;;;;;-0.78;100.00;101177.77;216161;1299;139728;-88
2023/01/21 01:17:30;;;;;;;40.50;15.50;;;;;;;-0.76;100.00;101181.09;216765;1299;139272;-88
2023/01/21 01:23:22;;;;;;;42.10;15.30;;;;;;;-0.73;100.00;101175.48;216186;1298;139467;-89
2023/01/21 01:29:12;;;;;;;42.10;15.00;;;;;;;-0.70;100.00;101169.85;216207;1299;140291;-89
2023/01/21 01:34:53;;;;;;;35.70;15.50;;;;;;;-0.68;100.00;101179.93;216822;1299;139184;-89
2023/01/21 01:40:52;;;;;;;;;;;;;;;;;;;;;
2023/01/21 01:46:55;;;;;;;41.70;17.70;;;;;;;-0.65;100.00;101181.52;216662;1299;139886;-89
2023/01/21 01:52:55;;;;;;;40.60;16.40;;;;;;;-0.64;100.00;101177.80;216098;1299;139749;-89
2023/01/21 01:58:56;;;;;;;43.50;16.40;;;;;;;-0.61;100.00;101175.45;216822;1299;139878;-90
2023/01/21 02:04:59;;;;;;;43.00;19.40;;;;;;;-0.61;100.00;101174.86;216561;1299;140309;-90
2023/01/21 02:10:50;;;;;;;43.10;15.70;;;;;;;-0.57;100.00;101174.48;216315;1299;140254;-88
2023/01/21 02:16:49;;;;;;;;;;;;;;;;;;;;;
2023/01/21 02:22:58;;;;;;;37.80;15.50;;;;;;;-0.50;100.00;101178.84;216244;1299;139771;-88
2023/01/21 02:35:21;;;;;;;46.10;17.80;;;;;;;-0.45;100.00;101175.55;216632;1299;221763;-89
2023/01/21 02:41:17;;;;;;;;;;;;;;;;;;;;;
2023/01/21 02:47:43;;;;;;;32.40;13.10;;;;;;;-0.40;100.00;101174.03;216990;1299;139822;-90
2023/01/21 02:53:36;;;;;;;;;;;;;;;;;;;;;
2023/01/21 02:59:38;;;;;;;36.40;15.20;;;;;;;-0.32;100.00;101170.80;216370;1299;140550;-89
2023/01/21 03:05:45;;;;;;;36.60;15.60;;;;;;;-0.28;100.00;101167.16;216696;1299;139322;-90
2023/01/21 03:11:56;;;;;;;35.30;14.30;;;;;;;-0.26;100.00;101170.15;216398;1299;139663;-88
2023/01/21 03:18:04;;;;;;;36.20;14.50;;;;;;;-0.24;100.00;101175.97;216882;1299;139251;-90
2023/01/21 03:23:50;;;;;;;35.80;13.90;;;;;;;-0.22;100.00;101175.46;216451;1299;139629;-89
2023/01/21 03:29:54;;;;;;;32.00;12.60;;;;;;;-0.21;100.00;101166.69;216552;1299;139193;-89
2023/01/21 03:35:58;;;;;;;34.20;14.60;;;;;;;-0.20;100.00;101174.14;216981;1299;139750;-91
2023/01/21 03:42:02;;;;;;;38.70;16.80;;;;;;;-0.17;100.00;101172.74;216543;1299;139673;-89
2023/01/21 03:48:04;;;;;;;;;;;;;;;;;;;;;
2023/01/21 03:54:03;;;;;;;37.70;14.30;;;;;;;-0.18;100.00;101160.06;216424;1299;139103;-90
2023/01/21 04:00:04;;;;;;;34.30;13.50;;;;;;;-0.18;100.00;101158.48;216394;1299;139147;-90
2023/01/21 04:06:06;;;;;;;29.70;13.40;;;;;;;-0.19;100.00;101161.89;216957;1299;139121;-89
2023/01/21 04:18:08;;;;;;;28.80;12.50;;;;;;;-0.21;100.00;101161.26;217014;1299;139328;-90
2023/01/21 04:24:09;;;;;;;30.60;14.70;;;;;;;-0.22;100.00;101161.98;216642;1299;139436;-89
2023/01/21 04:30:06;;;;;;;32.10;14.10;;;;;;;-0.24;100.00;101153.58;216346;1299;140194;-89
2023/01/21 04:35:52;;;;;;;32.30;12.10;;;;;;;-0.23;100.00;101149.89;217000;1299;139120;-90
2023/01/21 04:41:54;;;;;;;34.80;13.30;;;;;;;-0.25;100.00;101151.16;216424;1299;139444;-90
2023/01/21 04:47:48;;;;;;;31.90;13.80;;;;;;;-0.25;100.00;101154.40;216866;1299;139228;-89
2023/01/21 04:53:47;;;;;;;32.90;13.30;;;;;;;-0.25;100.00;101153.54;216528;1299;139767;-90
2023/01/21 04:59:48;;;;;;;35.20;15.00;;;;;;;-0.24;100.00;101147.41;216359;1299;139086;-90
2023/01/21 05:05:25;;;;;;;34.20;13.50;;;;;;;-0.25;100.00;101141.58;216934;1299;139338;-91
2023/01/21 05:11:26;;;;;;;;;;;;;;;;;;;;;
2023/01/21 05:17:29;;;;;;;32.60;13.80;;;;;;;-0.27;100.00;101141.38;216995;1299;139821;-90
2023/01/21 05:23:15;;;;;;;;;;;;;;;;;;;;;
2023/01/21 05:29:15;;;;;;;;;;;;;;;;;;;;;
2023/01/21 05:35:17;;;;;;;29.20;13.60;;;;;;;-0.25;100.00;101137.25;217078;1299;139177;-91
2023/01/21 05:41:17;;;;;;;29.50;12.90;;;;;;;-0.23;100.00;101141.70;216638;1299;139767;-90
2023/01/21 05:47:18;;;;;;;30.60;12.70;;;;;;;-0.22;100.00;101137.31;216962;1299;139044;-91
2023/01/21 05:53:20;;;;;;;30.40;11.80;;;;;;;-0.18;100.00;101137.45;216546;1299;230165;-91
2023/01/21 05:59:15;;;;;;;31.60;12.50;;;;;;;-0.15;100.00;101131.72;216344;1299;142307;-90
2023/01/21 06:05:15;;;;;;;26.50;11.60;;;;;;;-0.12;100.00;101117.66;217037;1299;139209;-90
2023/01/21 06:11:17;;;;;;;24.70;11.40;;;;;;;-0.09;100.00;101121.68;216437;1299;139069;-89
2023/01/21 06:17:18;;;;;;;26.10;11.00;;;;;;;-0.07;100.00;101125.39;212903;1299;5386031;-89
2023/01/21 06:23:22;;;;;;;29.20;10.90;;;;;;;-0.03;100.00;101130.27;216421;1299;139428;-90
2023/01/21 06:29:43;;;;;;;25.20;10.80;;;;;;;0.01;100.00;101128.13;216356;1299;139107;-91
2023/01/21 06:35:21;;;;;;;;;;;;;;;;;;;;;
2023/01/21 06:41:23;;;;;;;25.30;10.60;;;;;;;0.08;100.00;101129.86;216393;1303;140742;-89
2023/01/21 06:47:12;;;;;;;26.20;11.20;;;;;;;0.12;100.00;101131.47;217096;1299;138978;-91
2023/01/21 06:53:11;;;;;;;;;;;;;;;;;;;;;
2023/01/21 06:59:12;;;;;;;25.80;10.30;;;;;;;0.21;100.00;101130.27;216545;1298;139293;-88
2023/01/21 07:05:26;;;;;;;20.80;9.20;;;;;;;0.25;100.00;101129.23;217136;1299;139403;-91
2023/01/21 07:11:27;;;;;;;22.00;9.70;;;;;;;0.30;100.00;101127.33;216372;1299;138784;-91
2023/01/21 07:17:28;;;;;;;24.20;10.50;;;;;;;0.36;100.00;101122.44;217335;1299;138718;-89
2023/01/21 07:23:04;;;;;;;26.50;10.20;;;;;;;0.40;100.00;101116.61;216631;1299;139167;-90
2023/01/21 07:29:00;;;;;;;21.70;8.90;;;;;;;0.46;100.00;101113.41;216628;1299;163997;-91
2023/01/21 07:35:01;;;;;;;22.00;9.50;;;;;;;0.49;100.00;101109.61;217324;1299;138768;-92
2023/01/21 07:40:45;;;;;;;22.40;10.10;;;;;;;0.55;100.00;101106.55;216678;1299;142077;-90
2023/01/21 07:52:24;;;;;;;22.80;9.60;;;;;;;0.62;100.00;101104.76;217725;1299;138137;-93
2023/01/21 08:56:33;;;;;;;16.80;8.00;;;;;;;1.03;100.00;101059.36;216703;1299;106298;-85
2023/01/21 09:02:35;;;;;;;16.10;5.40;;;;;;;1.04;100.00;101049.63;216404;1299;139075;-85
2023/01/21 09:08:28;;;;;;;;;;;;;;;;;;;;;
2023/01/21 09:14:34;;;;;;;;;;;;;;;;;;;;;
2023/01/21 09:26:45;;;;;;;14.20;6.30;;;;;;;1.01;100.00;101031.38;216681;1299;108837;-82
2023/01/21 09:32:46;;;;;;;13.80;5.70;;;;;;;1.00;100.00;101023.52;216204;1298;139344;-85
2023/01/21 09:38:37;;;;;;;;;;;;;;;;;;;;;
2023/01/21 09:44:42;;;;;;;15.40;5.60;;;;;;;0.98;100.00;101002.70;216472;1299;138990;-90
2023/01/21 09:50:43;;;;;;;16.30;5.40;;;;;;;0.98;100.00;100989.68;216161;1298;140644;-89
2023/01/21 09:56:47;;;;;;;16.60;5.60;;;;;;;0.96;100.00;100970.77;216685;1298;138346;-84
2023/01/21 10:02:39;;;;;;;;;;;;;;;;;;;;;
2023/01/21 10:08:42;;;;;;;;;;;;;;;;;;;;;
2023/01/21 10:14:37;;;;;;;;;;;;;;;;;;;;;
2023/01/21 10:20:49;;;;;;;;;;;;;;;;;;;;;
2023/01/21 10:26:47;;;;;;;11.40;5.40;;;;;;;0.86;100.00;100928.74;216960;1299;96051;-83
2023/01/21 10:32:52;;;;;;;;;;;;;;;;;;;;;
2023/01/21 10:39:12;;;;;;;15.50;5.20;;;;;;;0.85;100.00;100908.48;216864;1299;138680;-87
2023/01/21 10:45:25;;;;;;;11.20;5.20;;;;;;;0.84;100.00;100928.41;216895;1298;96115;-89
2023/01/21 10:51:25;;;;;;;13.60;5.00;;;;;;;0.83;100.00;100930.64;216426;1299;138886;-87
2023/01/21 10:57:26;;;;;;;12.40;5.90;;;;;;;0.82;100.00;100929.63;216924;1299;96280;-86
2023/01/21 11:03:28;;;;;;;;;;;;;;;;;;;;;
2023/01/21 11:09:32;;;;;;;12.50;4.20;;;;;;;0.85;100.00;100931.84;216334;1299;139176;-86
2023/01/21 11:15:31;;;;;;;;;;;;;;;;;;;;;
2023/01/21 11:21:31;;;;;;;;;;;;;;;;;;;;;
2023/01/21 11:32:38;;;;;;;;;;;;;;;;;;;;;
2023/01/21 11:38:32;;;;;;;;;;;;;;;;;;;;;
2023/01/21 11:44:36;;;;;;;20.60;9.40;;;;;;;0.86;100.00;100924.84;216271;1299;138858;-86
2023/01/21 11:50:38;;;;;;;;;;;;;;;;;;;;;
2023/01/21 11:56:42;;;;;;;28.80;15.60;;;;;;;0.88;100.00;100924.38;216831;1300;139319;-85
2023/01/21 12:02:51;;;;;;;;;;;;;;;;;;;;;
2023/01/21 12:08:53;;;;;;;16.30;8.60;;;;;;;0.91;100.00;100916.73;216592;1298;139548;-86
2023/01/21 12:15:03;;;;;;;10.90;4.90;;;;;;;0.93;100.00;100912.99;216663;1298;138599;-86
2023/01/21 12:21:05;;;;;;;10.00;3.80;;;;;;;0.96;100.00;100914.55;215941;1298;139116;-86
2023/01/21 12:27:08;;;;;;;5.00;2.90;;;;;;;0.94;100.00;100909.44;216804;1299;139290;-85
2023/01/21 12:33:25;;;;;;;4.70;2.20;;;;;;;0.92;100.00;100906.77;216280;1299;139672;-86
2023/01/21 12:39:22;;;;;;;;;;;;;;;;;;;;;
2023/01/21 12:45:26;;;;;;;7.10;2.40;;;;;;;0.91;100.00;100907.84;216855;1299;138426;-89
2023/01/21 12:51:31;;;;;;;;;;;;;;;;;;;;;
2023/01/21 12:57:33;;;;;;;5.00;3.00;;;;;;;0.92;100.00;100904.34;216886;1299;96744;-89
2023/01/21 13:03:40;;;;;;;5.70;2.40;;;;;;;0.91;100.00;100913.45;216337;1299;138349;-90
2023/01/21 13:09:44;;;;;;;4.70;2.50;;;;;;;0.92;100.00;100915.88;216320;1299;205986;-86
2023/01/21 13:16:00;;;;;;;6.60;2.10;;;;;;;0.91;100.00;100915.30;216894;1299;111221;-88
2023/01/21 13:21:57;;;;;;;5.10;2.00;;;;;;;0.92;100.00;100921.40;215523;1299;138475;-89
2023/01/21 13:28:07;;;;;;;;;;;;;;;;;;;;;
2023/01/21 13:34:25;;;;;;;6.60;2.30;;;;;;;0.86;100.00;100926.58;216392;1299;138543;-86
2023/01/21 13:40:27;;;;;;;6.40;1.90;;;;;;;0.86;100.00;100922.98;216397;1299;138645;-87
2023/01/21 14:15:55;;;;;;;26.70;15.10;;;;;;;0.87;100.00;100940.81;217205;1297;110969;-88
2023/01/21 14:22:15;;;;;;;9.40;4.10;;;;;;;0.87;100.00;100943.19;216567;1296;139314;-87
2023/01/21 14:28:19;;;;;;;9.90;3.50;;;;;;;0.84;100.00;100950.79;216866;1297;139437;-90
2023/01/21 14:34:26;;;;;;;7.10;2.80;;;;;;;0.84;100.00;100947.38;216728;1297;138353;-87
2023/01/21 14:40:27;;;;;;;7.70;2.80;;;;;;;0.81;100.00;100951.55;216567;1296;138838;-89
2023/01/21 14:46:31;;;;;;;6.00;2.20;;;;;;;0.79;100.00;100956.36;217166;1298;108970;-89
2023/01/21 14:52:31;;;;;;;7.40;2.90;;;;;;;0.78;100.00;100967.85;216576;1296;138870;-89
2023/01/21 14:58:31;;;;;;;6.30;2.50;;;;;;;0.77;100.00;100975.63;217038;1298;108422;-87
2023/01/21 15:04:34;;;;;;;5.40;2.50;;;;;;;0.74;100.00;100982.39;216804;1296;138962;-86
2023/01/21 15:10:30;;;;;;;;;;;;;;;;;;;;;
2023/01/21 15:16:23;;;;;;;9.00;3.70;;;;;;;0.67;100.00;100995.02;217016;1299;138865;-90
2023/01/21 15:22:39;;;;;;;17.90;8.00;;;;;;;0.65;100.00;100997.98;216384;1297;138954;-86
2023/01/21 15:28:37;;;;;;;;;;;;;;;;;;;;;
2023/01/21 15:34:34;;;;;;;;;;;;;;;;;;;;;
2023/01/21 15:40:44;;;;;;;8.70;3.50;;;;;;;0.61;100.00;101015.45;216404;1296;139037;-83
2023/01/21 15:46:59;;;;;;;7.70;3.30;;;;;;;0.62;100.00;101023.77;217011;1300;95951;-86
2023/01/21 15:53:28;;;;;;;;;;;;;;;;;;;;;
2023/01/21 15:59:37;;;;;;;12.60;4.60;;;;;;;0.60;100.00;101029.63;216584;1296;138565;-90
2023/01/21 16:05:40;;;;;;;9.00;3.50;;;;;;;0.59;100.00;101045.88;217083;1296;96073;-86
2023/01/21 16:11:43;;;;;;;;;;;;;;;;;;;;;
2023/01/21 16:18:00;;;;;;;10.20;4.30;;;;;;;0.57;100.00;101058.58;217159;1298;96357;-89
2023/01/21 16:23:52;;;;;;;14.00;6.30;;;;;;;0.58;100.00;101064.02;216662;1297;137967;-87
2023/01/21 16:29:54;;;;;;;42.50;23.60;;;;;;;0.58;100.00;101065.89;216632;1297;138547;-89
2023/01/21 16:35:53;;;;;;;;;;;;;;;;;;;;;
2023/01/21 16:42:07;;;;;;;12.70;5.20;;;;;;;0.56;100.00;101083.02;216387;1299;139482;-86
2023/01/21 16:48:14;;;;;;;10.10;5.00;;;;;;;0.55;100.00;101085.59;217173;1297;96087;-89
2023/01/21 16:53:57;;;;;;;17.90;7.80;;;;;;;0.55;100.00;101092.26;216851;1297;139785;-91
2023/01/21 16:59:48;;;;;;;;;;;;;;;;;;;;;
2023/01/21 17:05:50;;;;;;;27.20;15.10;;;;;;;0.54;100.00;101105.31;217152;1297;95920;-89
2023/01/21 17:11:53;;;;;;;17.10;7.00;;;;;;;0.53;100.00;101117.57;216528;1297;139437;-88
2023/01/21 17:35:57;;;;;;;;;;;;;;;;;;;;;
2023/01/21 17:42:07;;;;;;;13.20;5.60;;;;;;;0.56;100.00;101162.92;216894;1298;139339;-88
2023/01/21 17:48:11;;;;;;;24.50;8.10;;;;;;;0.57;100.00;101177.38;217034;1297;138814;-89
2023/01/21 17:54:13;;;;;;;14.70;5.90;;;;;;;0.57;100.00;101184.73;216686;1299;139168;-89
2023/01/21 18:00:05;;;;;;;13.30;6.50;;;;;;;0.57;100.00;101196.38;216399;1299;139321;-89
2023/01/21 18:05:54;;;;;;;14.90;8.60;;;;;;;0.57;100.00;101203.27;216976;1299;139474;-87
2023/01/21 18:11:49;;;;;;;;;;;;;;;;;;;;;
2023/01/21 18:17:42;;;;;;;;;;;;;;;;;;;;;
2023/01/21 18:23:45;;;;;;;15.00;7.70;;;;;;;0.59;100.00;101224.15;216359;1297;139254;-86
2023/01/21 18:29:46;;;;;;;14.70;6.00;;;;;;;0.59;100.00;101238.88;216337;1298;139387;-85
2023/01/21 18:35:22;;;;;;;;;;;;;;;;;;;;;
2023/01/21 18:41:14;;;;;;;;;;;;;;;;;;;;;
2023/01/21 18:52:36;;;;;;;;;;;;;;;;;;;;;
2023/01/21 18:58:33;;;;;;;16.30;7.70;;;;;;;0.59;100.00;101253.72;216519;1300;139350;-85
2023/01/21 19:04:34;;;;;;;14.10;6.30;;;;;;;0.59;100.00;101262.92;216361;1299;139590;-87
2023/01/21 19:10:35;;;;;;;16.70;7.20;;;;;;;0.58;100.00;101272.36;216053;1299;139035;-86
2023/01/21 19:16:36;;;;;;;15.30;6.40;;;;;;;0.58;100.00;101275.88;216578;1298;138706;-86
2023/01/21 19:22:38;;;;;;;12.10;5.70;;;;;;;0.58;100.00;101274.59;216059;1298;139620;-84
2023/01/21 19:28:39;;;;;;;14.10;7.00;;;;;;;0.57;100.00;101278.34;216703;1299;138971;-84
2023/01/21 19:34:40;;;;;;;14.00;6.40;;;;;;;0.58;100.00;101284.72;216584;1299;138749;-86
2023/01/21 19:40:41;;;;;;;13.20;6.30;;;;;;;0.58;100.00;101289.48;216126;1298;138726;-85
2023/01/21 19:46:44;;;;;;;13.40;6.50;;;;;;;0.60;100.00;101305.71;216829;1298;138781;-85
2023/01/21 19:52:36;;;;;;;;;;;;;;;;;;;;;
2023/01/21 19:58:22;;;;;;;;;;;;;;;;;;;;;
2023/01/21 20:04:24;;;;;;;10.70;5.20;;;;;;;0.59;100.00;101331.34;216619;1299;139601;-83
2023/01/21 20:10:24;;;;;;;;;;;;;;;;;;;;;
2023/01/21 20:16:32;;;;;;;18.00;6.40;;;;;;;0.60;100.00;101344.77;216570;1299;139729;-84
2023/01/21 20:22:31;;;;;;;12.50;5.70;;;;;;;0.59;100.00;101352.36;215777;1299;138947;-87
2023/01/21 20:28:31;;;;;;;11.40;5.70;;;;;;;0.57;100.00;101351.46;216817;1299;139816;-87
2023/01/21 20:34:58;;;;;;;13.40;6.00;;;;;;;0.57;100.00;101364.20;216282;1299;138921;-86
2023/01/21 20:40:33;;;;;;;;;;;;;;;;;;;;;
2023/01/21 20:46:36;;;;;;;12.60;5.90;;;;;;;0.57;100.00;101383.26;216741;1302;138880;-85
2023/01/21 20:52:37;;;;;;;14.30;6.40;;;;;;;0.57;100.00;101387.33;216272;1297;138751;-83
2023/01/21 21:04:35;;;;;;;14.70;6.60;;;;;;;0.57;100.00;101400.59;216557;1299;139329;-86
2023/01/21 21:10:35;;;;;;;15.90;7.10;;;;;;;0.58;100.00;101403.35;216212;1299;138916;-84
2023/01/21 21:16:27;;;;;;;12.00;6.40;;;;;;;0.59;100.00;101412.01;216620;1299;138747;-86
2023/01/21 21:22:20;;;;;;;;;;;;;;;;;;;;;
2023/01/21 21:28:28;;;;;;;;;;;;;;;;;;;;;
2023/01/21 21:34:28;;;;;;;;;;;;;;;;;;;;;
2023/01/21 21:40:28;;;;;;;;;;;;;;;;;;;;;
2023/01/21 21:52:16;;;;;;;14.40;7.20;;;;;;;0.57;100.00;101439.98;216059;1299;139239;-85
2023/01/21 21:58:16;;;;;;;24.90;9.80;;;;;;;0.59;100.00;101442.02;216620;1300;139404;-84
2023/01/21 22:04:15;;;;;;;;;;;;;;;;;;;;;
2023/01/21 22:10:18;;;;;;;13.40;6.20;;;;;;;0.59;100.00;101455.34;216163;1298;139148;-86
2023/01/21 22:16:04;;;;;;;17.80;7.80;;;;;;;0.59;100.00;101463.90;216750;1298;138684;-85
2023/01/21 22:22:09;;;;;;;14.10;6.10;;;;;;;0.60;100.00;101466.60;216015;1298;139210;-84
2023/01/21 22:27:52;;;;;;;14.50;7.80;;;;;;;0.60;100.00;101475.80;216577;1298;139389;-84
2023/01/21 22:33:46;;;;;;;;;;;;;;;;;;;;;
2023/01/21 22:39:47;;;;;;;40.50;18.60;;;;;;;0.60;100.00;101480.70;216142;1298;139457;-82
2023/01/21 22:51:45;;;;;;;;;;;;;;;;;;;;;
2023/01/21 22:57:41;;;;;;;;;;;;;;;;;;;;;
2023/01/21 23:03:50;;;;;;;17.00;7.70;;;;;;;0.59;100.00;101502.80;216267;1299;138718;-88
2023/01/21 23:10:01;;;;;;;;;;;;;;;;;;;;;
2023/01/21 23:15:52;;;;;;;13.80;6.80;;;;;;;0.59;100.00;101517.27;216701;1298;138883;-83
2023/01/21 23:21:52;;;;;;;15.70;7.60;;;;;;;0.60;100.00;101526.90;216074;1298;138834;-82
2023/01/21 23:27:46;;;;;;;;;;;;;;;;;;;;;
2023/01/21 23:33:43;;;;;;;13.80;6.60;;;;;;;0.60;100.00;101530.36;216201;1299;139308;-83
2023/01/21 23:39:57;;;;;;;13.20;6.70;;;;;;;0.61;100.00;101522.66;216117;1299;139215;-89
2023/01/21 23:45:58;;;;;;;17.70;7.50;;;;;;;0.61;100.00;101531.06;216596;1302;138900;-85
2023/01/21 23:52:10;;;;;;;15.80;7.10;;;;;;;0.59;100.00;101537.20;216153;1299;139304;-82
2023/01/21 23:57:58;;;;;;;;;;;;;;;;;;;;;
